Time;durP1;ratioP1;P1;durP2;ratioP2;P2;SDS_P1;SDS_P2;PMS_P1;PMS_P2;Temp;Humidity;BMP_temperature;BMP_pressure;BME280_temperature;BME280_humidity;BME280_pressure;Samples;Min_cycle;Max_cycle;Signal;HPM_P1;HPM_P2
2022/01/22 00:02:05;;;;;;;39.80;5.87;;;2.60;38.10;;;;;;5027929;28;20605;-64
2022/01/22 00:04:32;;;;;;;43.40;6.53;;;2.60;38.00;;;;;;5022665;28;20467;-63
2022/01/22 00:07:01;;;;;;;41.73;6.50;;;2.60;37.90;;;;;;5030290;28;20494;-66
2022/01/22 00:09:35;;;;;;;38.03;6.40;;;2.60;38.00;;;;;;5030372;28;20455;-63
2022/01/22 00:12:02;;;;;;;39.37;6.00;;;2.60;37.90;;;;;;5027944;28;20455;-64
2022/01/22 00:14:28;;;;;;;42.00;6.57;;;2.60;37.90;;;;;;5020474;28;20514;-63
2022/01/22 00:16:57;;;;;;;40.00;6.90;;;2.60;37.90;;;;;;5010597;28;20746;-63
2022/01/22 00:19:26;;;;;;;39.83;5.97;;;2.60;37.80;;;;;;5027068;28;20976;-64
2022/01/22 00:21:55;;;;;;;38.40;5.27;;;2.60;37.80;;;;;;5028711;28;21036;-63
2022/01/22 00:24:22;;;;;;;42.37;6.07;;;2.60;37.80;;;;;;5021000;28;20481;-62
2022/01/22 00:26:49;;;;;;;42.07;6.63;;;2.60;37.80;;;;;;5029847;28;20459;-64
2022/01/22 00:29:16;;;;;;;40.93;5.77;;;2.60;38.30;;;;;;5029335;28;20463;-61
2022/01/22 00:31:43;;;;;;;37.60;5.20;;;2.60;37.70;;;;;;5022639;28;20464;-61
2022/01/22 00:34:11;;;;;;;40.60;5.90;;;2.60;37.60;;;;;;5019501;28;21084;-63
2022/01/22 00:36:40;;;;;;;39.10;5.87;;;2.60;37.50;;;;;;5029320;28;20462;-63
2022/01/22 00:39:08;;;;;;;37.07;5.40;;;2.60;38.10;;;;;;5029176;28;20945;-65
2022/01/22 00:41:35;;;;;;;41.37;5.13;;;2.70;37.70;;;;;;5029136;28;20479;-62
2022/01/22 00:44:02;;;;;;;40.33;5.70;;;2.60;37.70;;;;;;5026895;28;20486;-64
2022/01/22 00:46:29;;;;;;;37.53;5.77;;;2.60;37.80;;;;;;5022103;28;20455;-63
2022/01/22 00:48:56;;;;;;;39.43;5.73;;;2.60;37.80;;;;;;5029366;28;20458;-65
2022/01/22 00:51:23;;;;;;;38.50;5.73;;;2.70;37.70;;;;;;5028618;28;20466;-64
2022/01/22 00:53:52;;;;;;;37.80;5.90;;;2.70;37.50;;;;;;5028372;28;21000;-65
2022/01/22 00:56:18;;;;;;;38.33;5.37;;;2.70;37.50;;;;;;5021436;28;20451;-64
2022/01/22 00:58:45;;;;;;;38.20;5.53;;;2.70;37.50;;;;;;5029004;28;20459;-61
2022/01/22 01:01:12;;;;;;;39.60;5.77;;;2.70;37.50;;;;;;5028418;28;20483;-63
2022/01/22 01:03:39;;;;;;;37.70;4.87;;;2.60;37.50;;;;;;5028195;28;20486;-65
2022/01/22 01:06:06;;;;;;;38.03;4.87;;;2.70;37.50;;;;;;5021386;28;21189;-62
2022/01/22 01:08:35;;;;;;;38.50;5.13;;;2.70;37.40;;;;;;5009783;28;20456;-66
2022/01/22 01:11:05;;;;;;;43.10;7.23;;;2.70;37.50;;;;;;5014308;28;20451;-62
2022/01/22 01:13:38;;;;;;;40.27;5.53;;;2.60;37.50;;;;;;5027427;28;20486;-65
2022/01/22 01:16:17;;;;;;;38.97;4.80;;;2.70;37.60;;;;;;5025410;28;20454;-66
2022/01/22 01:32:35;;;;;;;38.57;5.10;;;2.70;37.60;;;;;;5027387;28;20478;-65
2022/01/22 01:35:06;;;;;;;37.07;4.87;;;2.60;37.60;;;;;;5027975;28;20540;-63
2022/01/22 01:37:32;;;;;;;42.43;5.50;;;2.60;37.80;;;;;;5020486;28;20451;-64
2022/01/22 01:40:03;;;;;;;37.60;5.00;;;2.70;37.70;;;;;;5028586;28;20463;-64
2022/01/22 01:42:38;;;;;;;40.73;5.67;;;2.70;37.60;;;;;;5026648;28;20483;-65
2022/01/22 01:45:07;;;;;;;39.40;6.10;;;2.70;37.50;;;;;;5018301;28;20580;-65
2022/01/22 01:47:35;;;;;;;38.17;5.87;;;2.70;37.50;;;;;;5027066;28;20995;-67
2022/01/22 01:50:04;;;;;;;43.03;5.90;;;2.70;37.50;;;;;;5028351;28;20462;-63
2022/01/22 01:52:37;;;;;;;38.87;5.00;;;2.70;37.50;;;;;;5026841;28;20462;-64
2022/01/22 01:55:11;;;;;;;36.37;5.37;;;2.70;37.50;;;;;;5021414;28;20537;-62
2022/01/22 01:57:39;;;;;;;40.97;5.83;;;2.70;37.40;;;;;;5028830;28;20494;-65
2022/01/22 02:00:09;;;;;;;39.40;5.87;;;2.70;37.40;;;;;;5027812;28;20463;-64
2022/01/22 02:02:37;;;;;;;36.37;5.10;;;2.70;37.60;;;;;;5026549;28;20487;-63
2022/01/22 02:05:05;;;;;;;39.07;5.50;;;2.80;37.60;;;;;;5019779;28;20483;-66
2022/01/22 02:07:31;;;;;;;37.00;5.60;;;2.80;37.70;;;;;;5027668;28;20451;-62
2022/01/22 02:09:59;;;;;;;42.37;5.30;;;2.80;37.50;;;;;;5028334;28;20462;-62
2022/01/22 02:12:48;;;;;;;36.90;4.70;;;2.80;37.50;;;;;;5027712;28;20451;-63
2022/01/22 02:23:36;;;;;;;37.17;5.20;;;2.80;38.00;;;;;;5038436;28;20453;-65
2022/01/22 02:26:03;;;;;;;38.13;4.60;;;2.80;38.10;;;;;;5026917;28;20463;-63
2022/01/22 02:28:31;;;;;;;37.70;4.93;;;2.80;38.00;;;;;;5019966;28;20451;-64
2022/01/22 02:31:04;;;;;;;39.30;5.40;;;2.80;38.10;;;;;;5027620;28;20566;-67
2022/01/22 02:33:37;;;;;;;37.10;5.10;;;2.80;38.30;;;;;;5027956;28;20477;-61
2022/01/22 02:36:14;;;;;;;38.80;6.13;;;2.80;38.30;;;;;;5026841;28;20466;-66
2022/01/22 02:38:50;;;;;;;38.23;5.57;;;2.80;38.40;;;;;;5019645;28;20458;-62
2022/01/22 02:41:19;;;;;;;39.27;5.30;;;2.80;38.50;;;;;;5030742;28;20470;-64
2022/01/22 02:43:47;;;;;;;37.47;5.13;;;2.80;38.70;;;;;;5031564;28;20968;-63
2022/01/22 02:46:17;;;;;;;36.87;5.50;;;2.70;39.00;;;;;;5031829;28;21173;-63
2022/01/22 02:48:44;;;;;;;38.90;5.87;;;2.80;39.20;;;;;;5027290;28;20465;-63
2022/01/22 02:51:10;;;;;;;39.87;6.13;;;2.80;39.30;;;;;;5030266;28;20450;-65
2022/01/22 02:53:37;;;;;;;40.73;5.83;;;2.80;39.40;;;;;;5031174;28;20493;-64
2022/01/22 02:56:06;;;;;;;36.40;5.80;;;2.80;39.40;;;;;;5030473;28;20459;-61
2022/01/22 02:58:33;;;;;;;37.50;6.07;;;2.80;39.50;;;;;;5022546;28;20506;-64
2022/01/22 03:01:00;;;;;;;39.20;5.70;;;2.80;39.60;;;;;;5030731;28;20478;-62
2022/01/22 03:03:27;;;;;;;40.40;5.90;;;2.80;39.60;;;;;;5031608;28;20482;-64
2022/01/22 03:05:54;;;;;;;37.03;6.40;;;2.80;39.80;;;;;;5030149;28;20466;-66
2022/01/22 03:08:24;;;;;;;38.50;6.30;;;2.80;40.00;;;;;;5021771;28;21114;-63
2022/01/22 03:10:53;;;;;;;37.90;5.50;;;2.80;40.20;;;;;;5030574;28;20473;-63
2022/01/22 03:16:28;;;;;;;39.27;7.60;;;2.80;40.40;;;;;;5031011;28;20442;-66
2022/01/22 03:19:00;;;;;;;39.67;6.90;;;2.80;40.60;;;;;;5020134;28;20447;-63
2022/01/22 03:21:36;;;;;;;45.53;6.20;;;2.80;40.70;;;;;;5014910;28;20879;-60
2022/01/22 03:29:45;;;;;;;39.83;6.43;;;2.80;41.60;;;;;;5014422;28;20442;-62
2022/01/22 03:32:13;;;;;;;46.13;8.50;;;2.80;41.70;;;;;;5030018;28;20459;-62
2022/01/22 03:34:47;;;;;;;43.80;7.77;;;2.80;41.90;;;;;;5030573;28;20553;-64
2022/01/22 03:37:14;;;;;;;41.90;7.93;;;2.80;42.10;;;;;;5030116;28;20505;-65
2022/01/22 03:39:40;;;;;;;42.80;8.10;;;2.80;42.30;;;;;;5022266;28;20862;-61
2022/01/22 03:42:08;;;;;;;48.27;8.03;;;2.80;42.30;;;;;;5028208;28;20506;-65
2022/01/22 03:44:35;;;;;;;44.63;8.63;;;2.80;42.40;;;;;;5029974;28;20475;-62
2022/01/22 03:47:04;;;;;;;40.60;8.87;;;2.80;42.60;;;;;;5030189;28;20966;-60
2022/01/22 03:49:31;;;;;;;46.20;10.13;;;2.80;42.60;;;;;;5025329;28;20491;-61
2022/01/22 03:51:58;;;;;;;42.10;9.43;;;2.80;42.80;;;;;;5025838;28;20447;-64
2022/01/22 03:54:25;;;;;;;43.43;10.03;;;2.80;42.90;;;;;;5030076;28;20487;-63
2022/01/22 03:56:52;;;;;;;43.30;8.93;;;2.80;43.00;;;;;;5030292;28;20466;-63
2022/01/22 03:59:20;;;;;;;42.50;8.70;;;2.80;43.00;;;;;;5026051;28;20467;-62
2022/01/22 04:04:35;;;;;;;44.27;9.33;;;2.80;43.20;;;;;;5030307;28;20485;-62
2022/01/22 04:07:35;;;;;;;43.50;8.17;;;2.80;43.20;;;;;;5030618;28;20544;-66
2022/01/22 04:10:04;;;;;;;43.37;8.63;;;2.80;43.30;;;;;;5028207;28;20482;-62
2022/01/22 04:12:38;;;;;;;39.07;7.90;;;2.80;43.30;;;;;;5015242;28;20821;-60
2022/01/22 04:15:08;;;;;;;44.77;7.47;;;2.80;43.60;;;;;;5030500;28;20524;-61
2022/01/22 04:24:49;;;;;;;38.77;7.33;;;2.80;43.60;;;;;;5029847;28;20482;-62
2022/01/22 04:26:05;;;;;;;46.83;8.70;;;2.80;43.70;;;;;;5028611;28;20462;-62
2022/01/22 04:28:32;;;;;;;40.47;8.60;;;2.80;43.70;;;;;;5029843;28;20462;-65
2022/01/22 04:30:59;;;;;;;40.00;8.00;;;2.90;43.90;;;;;;5025147;28;20479;-64
2022/01/22 04:33:26;;;;;;;41.00;8.00;;;2.90;43.90;;;;;;5021245;28;21039;-62
2022/01/22 04:35:54;;;;;;;42.67;8.20;;;2.90;43.80;;;;;;5029198;28;20852;-61
2022/01/22 04:38:21;;;;;;;39.77;8.10;;;2.90;43.60;;;;;;5028699;28;20996;-63
2022/01/22 04:40:47;;;;;;;40.50;8.00;;;2.90;43.70;;;;;;5028165;28;20463;-64
2022/01/22 04:43:15;;;;;;;41.87;9.63;;;2.90;43.70;;;;;;5019713;28;20479;-66
2022/01/22 04:48:39;;;;;;;40.73;8.30;;;2.90;43.70;;;;;;5028484;28;20458;-62
2022/01/22 04:56:39;;;;;;;41.00;8.67;;;3.00;44.30;;;;;;5028663;28;20466;-63
2022/01/22 04:59:06;;;;;;;40.50;8.30;;;3.00;43.70;;;;;;5028957;28;20463;-61
2022/01/22 05:01:32;;;;;;;42.00;8.80;;;3.00;43.70;;;;;;5028131;28;20649;-61
2022/01/22 05:03:59;;;;;;;41.60;8.47;;;3.00;43.60;;;;;;5046637;28;20504;-61
2022/01/22 05:06:29;;;;;;;41.13;8.53;;;3.10;43.60;;;;;;5047906;28;20473;-62
2022/01/22 05:08:56;;;;;;;40.70;9.53;;;3.10;43.60;;;;;;5030196;28;20486;-62
2022/01/22 05:11:24;;;;;;;42.37;9.70;;;3.10;43.60;;;;;;5026561;28;20467;-62
2022/01/22 05:13:51;;;;;;;42.90;8.70;;;3.10;43.70;;;;;;5020190;28;20989;-60
2022/01/22 05:16:18;;;;;;;41.30;9.30;;;3.20;43.60;;;;;;5028506;28;20486;-62
2022/01/22 05:18:51;;;;;;;44.17;8.70;;;3.10;43.40;;;;;;5029035;28;20558;-60
2022/01/22 05:21:19;;;;;;;42.83;9.90;;;3.10;43.60;;;;;;5027635;28;20485;-61
2022/01/22 05:23:48;;;;;;;40.57;9.20;;;3.20;43.50;;;;;;5017345;28;20571;-61
2022/01/22 05:26:41;;;;;;;42.40;10.13;;;3.20;43.40;;;;;;5026837;28;20490;-64
2022/01/22 05:29:26;;;;;;;40.37;8.47;;;3.20;43.50;;;;;;5029015;28;20459;-63
2022/01/22 05:32:18;;;;;;;40.90;9.67;;;3.20;43.50;;;;;;5027693;28;20471;-67
2022/01/22 05:37:27;;;;;;;43.33;9.03;;;3.20;43.60;;;;;;5016520;28;20450;-61
2022/01/22 05:39:56;;;;;;;41.97;9.47;;;3.20;43.40;;;;;;5028384;28;20559;-62
2022/01/22 05:42:22;;;;;;;40.50;8.27;;;3.20;43.40;;;;;;5027101;28;21028;-61
2022/01/22 05:44:49;;;;;;;49.60;9.47;;;3.20;43.30;;;;;;5013074;28;21017;-61
2022/01/22 05:47:21;;;;;;;42.63;8.27;;;3.20;43.20;;;;;;5027145;28;20451;-64
2022/01/22 05:49:48;;;;;;;44.30;8.60;;;3.20;43.30;;;;;;5028223;28;20662;-61
2022/01/22 05:52:20;;;;;;;42.33;8.17;;;3.20;43.20;;;;;;5027992;28;20458;-62
2022/01/22 05:55:11;;;;;;;39.20;7.57;;;3.20;43.10;;;;;;5026196;28;20491;-61
2022/01/22 06:00:24;;;;;;;39.97;7.13;;;3.20;42.90;;;;;;5009290;28;20474;-61
2022/01/22 06:02:50;;;;;;;41.93;7.50;;;3.20;42.90;;;;;;5027680;28;20483;-63
2022/01/22 06:05:18;;;;;;;41.37;7.27;;;3.20;42.80;;;;;;5019140;28;20480;-60
2022/01/22 06:07:45;;;;;;;42.30;7.30;;;3.20;42.80;;;;;;5027371;28;20960;-60
2022/01/22 06:10:20;;;;;;;40.80;8.23;;;3.20;42.80;;;;;;5027280;28;20451;-61
2022/01/22 06:13:08;;;;;;;39.60;8.00;;;3.20;42.50;;;;;;5027812;28;20451;-61
2022/01/22 06:15:35;;;;;;;41.07;7.40;;;3.20;42.30;;;;;;5018655;28;20491;-63
2022/01/22 06:18:02;;;;;;;39.60;7.20;;;3.20;42.40;;;;;;5028001;28;20451;-66
2022/01/22 06:20:28;;;;;;;37.93;7.33;;;3.20;42.30;;;;;;5031528;28;20821;-62
2022/01/22 06:22:55;;;;;;;38.10;7.07;;;3.20;42.10;;;;;;5032144;28;20474;-60
2022/01/22 06:25:22;;;;;;;39.70;7.20;;;3.20;42.30;;;;;;5030582;28;20491;-62
2022/01/22 06:27:50;;;;;;;40.17;8.10;;;3.20;42.40;;;;;;5031347;28;21079;-62
2022/01/22 06:30:17;;;;;;;39.77;8.00;;;3.20;42.30;;;;;;5031428;28;20450;-64
2022/01/22 06:32:43;;;;;;;39.50;8.10;;;3.20;42.20;;;;;;5025617;28;20451;-62
2022/01/22 06:35:10;;;;;;;43.30;9.07;;;3.20;42.20;;;;;;5020662;28;21013;-62
2022/01/22 06:37:37;;;;;;;39.77;7.53;;;3.20;42.00;;;;;;5022536;28;20466;-63
2022/01/22 06:42:45;;;;;;;40.73;7.73;;;3.20;42.10;;;;;;4989802;28;20462;-60
2022/01/22 06:45:13;;;;;;;40.80;7.50;;;3.20;42.00;;;;;;5021863;28;20572;-61
2022/01/22 06:47:41;;;;;;;37.87;6.70;;;3.20;42.00;;;;;;5020031;28;21161;-63
2022/01/22 06:50:08;;;;;;;40.30;7.23;;;3.20;42.00;;;;;;5020234;28;20466;-61
2022/01/22 06:52:35;;;;;;;39.63;7.40;;;3.20;41.90;;;;;;5018043;28;20463;-65
2022/01/22 06:55:02;;;;;;;40.50;6.67;;;3.20;41.60;;;;;;5019402;28;20854;-61
2022/01/22 06:57:29;;;;;;;38.40;7.70;;;3.20;41.60;;;;;;5020909;28;20482;-61
2022/01/22 06:59:56;;;;;;;37.80;6.63;;;3.20;41.40;;;;;;5027114;28;20458;-63
2022/01/22 07:02:24;;;;;;;38.70;6.57;;;3.20;41.20;;;;;;5028184;28;20473;-65
2022/01/22 07:04:51;;;;;;;42.60;7.13;;;3.20;41.10;;;;;;5018723;28;20472;-66
2022/01/22 07:07:17;;;;;;;37.93;6.50;;;3.20;41.10;;;;;;5030666;28;20469;-62
2022/01/22 07:09:45;;;;;;;40.20;6.27;;;3.20;41.00;;;;;;5030911;28;20956;-62
2022/01/22 07:12:12;;;;;;;40.60;6.73;;;3.20;41.20;;;;;;5029437;28;20470;-62
2022/01/22 07:14:41;;;;;;;40.57;7.60;;;3.20;41.00;;;;;;5025256;28;21093;-62
2022/01/22 07:17:08;;;;;;;39.73;6.67;;;3.20;40.90;;;;;;5030748;28;20447;-64
2022/01/22 07:19:39;;;;;;;40.33;7.60;;;3.20;40.80;;;;;;5030783;28;20451;-61
2022/01/22 07:22:19;;;;;;;38.90;7.20;;;3.20;40.80;;;;;;5028584;28;20456;-64
2022/01/22 07:24:46;;;;;;;41.17;6.33;;;3.20;40.60;;;;;;5021472;28;20529;-61
2022/01/22 07:27:13;;;;;;;41.63;6.90;;;3.20;40.60;;;;;;5030442;28;20451;-61
2022/01/22 07:29:39;;;;;;;38.50;6.47;;;3.20;40.70;;;;;;5030920;28;20459;-61
2022/01/22 07:32:13;;;;;;;38.77;7.10;;;3.10;40.70;;;;;;5025202;28;20483;-63
2022/01/22 07:34:41;;;;;;;43.53;7.60;;;3.20;40.70;;;;;;5018706;28;21072;-61
2022/01/22 07:37:08;;;;;;;37.70;7.10;;;3.20;40.50;;;;;;5026091;28;20996;-66
2022/01/22 07:39:34;;;;;;;40.47;7.70;;;3.20;41.20;;;;;;5029380;28;20462;-63
2022/01/22 07:42:01;;;;;;;40.10;7.07;;;3.20;40.60;;;;;;5030181;28;20466;-62
2022/01/22 07:44:28;;;;;;;43.13;8.20;;;3.20;40.80;;;;;;5020257;28;20482;-63
2022/01/22 07:46:55;;;;;;;39.30;6.53;;;3.20;41.00;;;;;;5022019;28;21015;-65
2022/01/22 07:49:21;;;;;;;38.57;6.90;;;3.20;41.10;;;;;;5023117;28;21151;-62
2022/01/22 07:51:50;;;;;;;40.10;8.03;;;3.20;41.20;;;;;;5028841;28;20493;-65
2022/01/22 07:54:17;;;;;;;44.00;8.07;;;3.30;41.20;;;;;;5026246;28;20491;-64
2022/01/22 07:56:43;;;;;;;38.73;7.93;;;3.30;41.30;;;;;;5020309;28;20559;-62
2022/01/22 07:59:10;;;;;;;44.60;8.77;;;3.30;41.40;;;;;;5026172;28;20462;-66
2022/01/22 08:01:37;;;;;;;39.37;7.43;;;3.30;41.40;;;;;;5025212;28;20479;-63
2022/01/22 08:04:04;;;;;;;44.77;8.80;;;3.30;41.40;;;;;;5028788;28;20494;-63
2022/01/22 08:06:31;;;;;;;47.10;8.67;;;3.40;41.50;;;;;;5028250;28;20469;-62
2022/01/22 08:08:59;;;;;;;38.17;6.87;;;3.40;41.40;;;;;;5021733;28;20458;-63
2022/01/22 08:11:25;;;;;;;40.93;7.80;;;3.40;41.40;;;;;;5029086;28;20459;-64
2022/01/22 08:13:52;;;;;;;44.70;8.70;;;3.40;41.60;;;;;;5028664;28;20475;-63
2022/01/22 08:16:19;;;;;;;40.87;7.70;;;3.40;41.70;;;;;;5025798;28;20470;-62
2022/01/22 08:18:46;;;;;;;40.20;8.27;;;3.40;41.60;;;;;;5022730;28;20463;-62
2022/01/22 08:21:12;;;;;;;44.53;8.80;;;3.40;41.70;;;;;;5027839;28;20473;-64
2022/01/22 08:23:39;;;;;;;39.97;7.57;;;3.40;41.80;;;;;;5028943;28;20490;-62
2022/01/22 08:26:10;;;;;;;43.10;9.00;;;3.40;41.60;;;;;;5020837;28;20467;-62
2022/01/22 08:28:57;;;;;;;40.10;7.53;;;3.40;41.60;;;;;;5021639;28;20521;-64
2022/01/22 08:31:37;;;;;;;42.50;8.07;;;3.40;41.90;;;;;;5026925;28;20475;-64
2022/01/22 08:36:58;;;;;;;40.30;8.53;;;3.40;42.10;;;;;;5021938;28;20542;-62
2022/01/22 08:39:25;;;;;;;43.00;7.87;;;3.40;41.70;;;;;;5026570;28;20467;-62
2022/01/22 08:41:54;;;;;;;41.87;7.83;;;3.40;41.60;;;;;;5026513;28;20975;-63
2022/01/22 08:44:20;;;;;;;40.30;7.87;;;3.40;41.90;;;;;;5023975;28;20494;-61
2022/01/22 08:46:47;;;;;;;40.40;8.20;;;3.40;41.80;;;;;;5028859;28;20466;-63
2022/01/22 08:49:14;;;;;;;40.50;8.67;;;3.40;41.40;;;;;;5027384;28;20470;-62
2022/01/22 08:51:41;;;;;;;45.27;10.33;;;3.50;41.30;;;;;;5025423;28;20870;-61
2022/01/22 08:54:09;;;;;;;43.17;7.93;;;3.40;41.20;;;;;;5019949;28;21015;-64
2022/01/22 08:56:37;;;;;;;42.73;9.03;;;3.50;41.20;;;;;;5019597;28;20467;-67
2022/01/22 08:59:05;;;;;;;44.00;10.53;;;3.40;41.40;;;;;;5022815;28;21216;-67
2022/01/22 09:01:32;;;;;;;43.10;9.13;;;3.50;41.50;;;;;;5021175;28;20475;-63
2022/01/22 09:03:59;;;;;;;42.43;9.10;;;3.50;41.60;;;;;;5020852;28;20517;-62
2022/01/22 09:06:28;;;;;;;44.97;9.07;;;3.50;41.70;;;;;;5020561;28;20467;-64
2022/01/22 09:09:04;;;;;;;45.40;9.20;;;3.50;41.70;;;;;;5026323;28;20471;-62
2022/01/22 09:11:30;;;;;;;44.80;8.87;;;3.50;41.70;;;;;;5025971;28;20560;-62
2022/01/22 09:13:57;;;;;;;43.73;10.50;;;3.50;41.50;;;;;;5021356;28;20498;-65
2022/01/22 09:16:26;;;;;;;45.57;9.37;;;3.50;41.50;;;;;;5023901;28;21183;-65
2022/01/22 09:18:54;;;;;;;46.93;9.70;;;3.60;41.30;;;;;;5022702;28;20462;-64
2022/01/22 09:21:20;;;;;;;44.97;10.60;;;3.60;41.40;;;;;;5026499;28;20489;-62
2022/01/22 09:23:47;;;;;;;43.47;9.30;;;3.60;41.20;;;;;;5027784;28;20485;-60
2022/01/22 09:26:14;;;;;;;47.53;10.07;;;3.60;41.30;;;;;;5025001;28;20884;-64
2022/01/22 09:28:43;;;;;;;46.30;9.87;;;3.60;41.40;;;;;;5027859;28;21248;-62
2022/01/22 09:31:09;;;;;;;47.03;10.37;;;3.60;41.40;;;;;;5026413;28;20902;-61
2022/01/22 09:33:39;;;;;;;45.70;10.70;;;3.70;41.60;;;;;;5027008;28;21024;-62
2022/01/22 09:36:06;;;;;;;43.90;9.70;;;3.70;41.50;;;;;;5026915;28;20490;-61
2022/01/22 09:38:33;;;;;;;45.50;12.03;;;3.70;41.50;;;;;;5028025;28;20450;-64
2022/01/22 09:41:00;;;;;;;43.00;9.93;;;3.70;41.40;;;;;;5028090;28;20455;-62
2022/01/22 09:43:27;;;;;;;44.80;11.17;;;3.70;41.30;;;;;;5026584;28;20577;-60
2022/01/22 09:45:54;;;;;;;45.53;10.13;;;3.70;41.60;;;;;;5026168;28;20451;-62
2022/01/22 09:48:20;;;;;;;44.03;10.37;;;3.70;41.50;;;;;;5027291;28;20462;-64
2022/01/22 09:50:49;;;;;;;45.53;11.30;;;3.70;41.60;;;;;;5027529;28;20548;-61
2022/01/22 09:53:16;;;;;;;45.67;10.87;;;3.80;41.60;;;;;;5026571;28;20499;-65
2022/01/22 09:55:43;;;;;;;45.33;9.80;;;3.80;41.70;;;;;;5024480;28;20490;-63
2022/01/22 09:58:09;;;;;;;46.93;11.13;;;3.80;41.70;;;;;;5026802;28;20463;-63
2022/01/22 10:00:36;;;;;;;45.70;12.13;;;3.80;41.70;;;;;;5026608;28;20470;-64
2022/01/22 10:03:13;;;;;;;44.33;10.67;;;3.80;41.70;;;;;;5027406;28;20899;-65
2022/01/22 10:05:41;;;;;;;45.07;10.37;;;3.80;41.70;;;;;;5026127;28;20459;-61
2022/01/22 10:08:27;;;;;;;46.30;11.37;;;3.90;41.90;;;;;;5025688;28;20541;-62
2022/01/22 10:10:55;;;;;;;46.90;11.83;;;3.90;42.00;;;;;;5015958;28;20451;-62
2022/01/22 10:13:39;;;;;;;45.47;11.57;;;3.90;41.80;;;;;;5025893;28;20458;-64
2022/01/22 10:16:14;;;;;;;46.50;12.37;;;3.90;41.90;;;;;;5022237;28;20850;-61
2022/01/22 10:18:42;;;;;;;44.67;11.00;;;4.00;41.70;;;;;;5020974;28;20494;-68
2022/01/22 10:21:10;;;;;;;45.20;11.43;;;4.00;41.90;;;;;;5027756;28;20462;-65
2022/01/22 10:23:39;;;;;;;44.50;11.93;;;4.00;41.80;;;;;;5018146;28;20496;-63
2022/01/22 10:26:10;;;;;;;44.87;11.13;;;4.10;41.60;;;;;;5025254;28;20459;-63
2022/01/22 10:28:45;;;;;;;44.40;9.83;;;4.10;41.40;;;;;;5028468;28;20462;-63
2022/01/22 10:31:20;;;;;;;44.73;10.30;;;4.10;41.50;;;;;;5029271;23;20479;-63
2022/01/22 10:34:06;;;;;;;47.07;12.17;;;4.10;41.50;;;;;;5004327;28;20955;-60
2022/01/22 10:36:33;;;;;;;46.03;12.70;;;4.10;41.30;;;;;;4995207;28;20459;-61
2022/01/22 10:39:01;;;;;;;45.10;11.53;;;4.10;41.10;;;;;;5009120;28;20460;-60
2022/01/22 10:41:37;;;;;;;46.63;12.33;;;4.10;41.20;;;;;;4990466;28;20479;-60
2022/01/22 10:44:07;;;;;;;50.17;12.00;;;4.10;41.30;;;;;;5001351;28;20476;-64
2022/01/22 10:46:45;;;;;;;44.13;10.37;;;4.40;41.50;;;;;;4990391;28;20467;-62
2022/01/22 10:49:14;;;;;;;52.50;11.87;;;4.00;41.60;;;;;;5001090;28;20483;-63
2022/01/22 10:51:50;;;;;;;44.97;11.27;;;4.00;41.40;;;;;;5008548;28;20468;-63
2022/01/22 10:54:20;;;;;;;45.37;11.37;;;4.00;41.70;;;;;;5001984;28;20460;-64
2022/01/22 10:56:48;;;;;;;47.47;11.57;;;4.00;41.50;;;;;;5004816;28;20949;-63
2022/01/22 10:59:17;;;;;;;48.90;11.10;;;4.00;41.30;;;;;;5002882;28;20562;-63
2022/01/22 11:01:52;;;;;;;48.90;12.57;;;4.00;41.50;;;;;;4999583;28;20854;-64
2022/01/22 11:04:22;;;;;;;48.67;11.90;;;4.00;41.40;;;;;;4995916;28;20484;-60
2022/01/22 11:06:52;;;;;;;49.10;13.07;;;4.00;41.30;;;;;;5003223;28;20455;-60
2022/01/22 11:09:22;;;;;;;48.70;12.67;;;4.00;41.40;;;;;;5005156;28;20459;-60
2022/01/22 11:11:49;;;;;;;65.63;23.30;;;4.10;41.40;;;;;;5012246;28;20484;-60
2022/01/22 11:14:17;;;;;;;52.63;16.47;;;4.10;41.40;;;;;;5005255;28;20454;-60
2022/01/22 11:16:47;;;;;;;53.33;17.13;;;4.10;41.30;;;;;;5010743;28;20456;-60
2022/01/22 11:19:17;;;;;;;54.00;17.00;;;4.10;41.00;;;;;;5010015;28;20479;-60
2022/01/22 11:21:47;;;;;;;50.73;13.87;;;4.20;41.00;;;;;;5005417;28;20479;-60
2022/01/22 11:24:14;;;;;;;54.83;14.63;;;4.20;40.70;;;;;;5012441;28;20490;-60
2022/01/22 11:26:50;;;;;;;51.10;14.13;;;4.30;40.40;;;;;;5011819;28;20464;-59
2022/01/22 11:29:17;;;;;;;49.23;13.30;;;4.40;40.50;;;;;;5009873;28;20953;-63
2022/01/22 11:31:46;;;;;;;47.17;12.80;;;4.50;39.90;;;;;;5010100;28;20479;-62
2022/01/22 11:34:15;;;;;;;56.00;19.10;;;4.60;39.70;;;;;;5003363;28;20540;-63
2022/01/22 11:36:48;;;;;;;48.50;12.40;;;4.60;39.40;;;;;;4994237;28;20460;-63
2022/01/22 11:39:21;;;;;;;49.97;13.53;;;4.60;39.40;;;;;;4995043;28;20484;-63
2022/01/22 11:41:53;;;;;;;47.00;12.37;;;4.70;39.30;;;;;;5005549;28;20480;-62
2022/01/22 11:44:26;;;;;;;49.70;12.67;;;4.70;39.20;;;;;;5011605;28;21010;-64
2022/01/22 11:47:08;;;;;;;50.13;14.53;;;4.80;39.00;;;;;;5010541;28;20546;-65
2022/01/22 11:49:36;;;;;;;50.67;14.90;;;4.80;39.00;;;;;;4997261;28;20461;-59
2022/01/22 11:52:24;;;;;;;46.27;11.70;;;4.80;38.90;;;;;;5009365;28;20452;-63
2022/01/22 11:54:54;;;;;;;50.13;13.13;;;4.80;38.80;;;;;;5009123;28;20962;-63
2022/01/22 11:57:23;;;;;;;53.80;14.87;;;4.80;38.70;;;;;;5009668;28;20988;-64
2022/01/22 12:00:19;;;;;;;58.07;18.50;;;4.70;38.80;;;;;;5001343;28;21320;-61
2022/01/22 12:02:46;;;;;;;58.37;15.70;;;4.70;39.00;;;;;;5009032;28;20460;-61
2022/01/22 12:05:12;;;;;;;48.67;12.97;;;4.70;38.90;;;;;;5007893;28;20484;-63
2022/01/22 12:07:39;;;;;;;47.17;12.30;;;4.70;39.10;;;;;;5017859;28;20460;-64
2022/01/22 12:10:34;;;;;;;47.30;11.60;;;4.70;39.20;;;;;;5010525;28;20503;-64
2022/01/22 12:16:15;;;;;;;46.83;11.90;;;4.60;39.10;;;;;;5008085;28;20602;-61
2022/01/22 12:18:50;;;;;;;48.10;13.10;;;4.70;39.00;;;;;;5005110;28;20983;-61
2022/01/22 12:21:34;;;;;;;52.77;13.33;;;4.70;39.30;;;;;;5002391;28;20484;-61
2022/01/22 12:24:04;;;;;;;48.10;14.03;;;4.70;39.20;;;;;;5005813;28;20479;-60
2022/01/22 12:26:46;;;;;;;46.60;12.33;;;4.70;39.40;;;;;;5008497;28;20476;-60
2022/01/22 12:29:44;;;;;;;48.23;13.93;;;4.80;39.60;;;;;;5008548;28;20468;-60
2022/01/22 12:32:42;;;;;;;48.63;11.67;;;4.90;39.50;;;;;;5003682;28;20482;-60
2022/01/22 12:35:16;;;;;;;46.60;12.40;;;5.00;39.10;;;;;;5001608;28;20464;-61
2022/01/22 12:37:49;;;;;;;46.03;11.17;;;5.10;39.00;;;;;;5007306;28;20464;-60
2022/01/22 12:40:30;;;;;;;47.80;11.47;;;5.10;38.90;;;;;;5006880;28;20520;-60
2022/01/22 12:43:12;;;;;;;46.00;11.93;;;5.20;38.60;;;;;;5006132;28;20571;-60
2022/01/22 12:45:44;;;;;;;45.50;12.37;;;5.20;38.40;;;;;;5003239;28;20487;-60
2022/01/22 12:48:13;;;;;;;50.63;11.90;;;5.20;38.50;;;;;;5002745;28;20518;-61
2022/01/22 12:50:41;;;;;;;55.20;14.93;;;5.10;38.70;;;;;;5005515;28;20946;-61
2022/01/22 12:53:14;;;;;;;51.23;11.23;;;5.10;38.80;;;;;;5006618;28;20471;-60
2022/01/22 12:58:38;;;;;;;48.27;13.10;;;5.00;38.90;;;;;;5002473;28;20455;-61
2022/01/22 13:01:13;;;;;;;51.33;12.50;;;4.90;39.10;;;;;;4999108;28;20491;-60
2022/01/22 13:03:42;;;;;;;49.00;12.53;;;4.80;39.40;;;;;;5001005;28;20925;-60
2022/01/22 13:06:09;;;;;;;46.60;11.60;;;4.80;39.60;;;;;;4992830;28;20480;-61
2022/01/22 13:08:36;;;;;;;47.63;13.67;;;4.70;39.70;;;;;;5003205;28;20574;-60
2022/01/22 13:11:07;;;;;;;48.20;11.70;;;4.70;39.80;;;;;;5008805;28;20539;-60
2022/01/22 13:13:34;;;;;;;49.20;12.37;;;4.60;40.00;;;;;;5009236;28;20464;-60
2022/01/22 13:16:02;;;;;;;49.87;11.20;;;4.60;40.20;;;;;;5009395;28;20463;-60
2022/01/22 13:18:41;;;;;;;50.67;12.63;;;4.60;40.20;;;;;;4999408;28;20467;-60
2022/01/22 13:21:10;;;;;;;46.00;13.20;;;4.60;40.40;;;;;;5001594;28;20498;-60
2022/01/22 13:23:37;;;;;;;45.90;12.13;;;4.50;40.50;;;;;;5008018;28;20840;-59
2022/01/22 13:26:04;;;;;;;49.17;13.13;;;4.50;40.60;;;;;;5010024;28;20585;-61
2022/01/22 13:28:33;;;;;;;46.50;12.20;;;4.50;40.80;;;;;;5009157;28;20475;-60
2022/01/22 13:31:05;;;;;;;53.30;13.37;;;4.40;41.10;;;;;;4998536;28;20557;-61
2022/01/22 13:33:38;;;;;;;46.00;12.80;;;4.40;41.10;;;;;;5002633;28;20844;-61
2022/01/22 13:36:23;;;;;;;45.00;12.10;;;4.40;41.40;;;;;;5008744;28;20540;-61
2022/01/22 13:39:24;;;;;;;46.57;13.07;;;4.40;41.30;;;;;;5006187;28;20467;-60
2022/01/22 13:47:46;;;;;;;48.10;12.07;;;4.40;41.50;;;;;;5005476;28;20479;-60
2022/01/22 13:50:15;;;;;;;47.33;13.13;;;4.30;41.70;;;;;;5009751;28;20483;-61
2022/01/22 13:52:44;;;;;;;49.23;13.00;;;4.30;41.80;;;;;;5002891;28;20638;-61
2022/01/22 13:55:13;;;;;;;48.43;13.07;;;4.30;41.90;;;;;;4992444;28;20444;-61
2022/01/22 13:57:42;;;;;;;54.70;13.90;;;4.30;42.00;;;;;;4993267;28;20456;-61
2022/01/22 14:00:11;;;;;;;47.07;12.93;;;4.30;42.10;;;;;;5001386;28;20473;-61
2022/01/22 14:03:03;;;;;;;48.60;11.63;;;4.30;42.20;;;;;;4995392;28;20480;-61
2022/01/22 14:05:31;;;;;;;52.10;13.37;;;4.30;42.20;;;;;;5002782;28;20870;-61
2022/01/22 14:08:05;;;;;;;52.17;14.93;;;4.30;42.30;;;;;;5000551;28;20464;-61
2022/01/22 14:10:32;;;;;;;48.97;14.80;;;4.30;42.40;;;;;;4993909;28;20999;-60